sensor_id;sensor_type;location;lat;lon;timestamp;P1;P2;P0
63915;PMS5003;50094;51.356;-0.196;2022-10-03T00:01:02;3;3;
63915;PMS5003;50094;51.356;-0.196;2022-10-03T00:03:41;1;1;
63915;PMS5003;50094;51.356;-0.196;2022-10-03T00:06:23;2;2;
63915;PMS5003;50094;51.356;-0.196;2022-10-03T00:09:06;1;1;
63915;PMS5003;50094;51.356;-0.196;2022-10-03T00:11:52;1;1;
63915;PMS5003;50094;51.356;-0.196;2022-10-03T00:14:32;2;2;
63915;PMS5003;50094;51.356;-0.196;2022-10-03T00:17:09;3;3;
63915;PMS5003;50094;51.356;-0.196;2022-10-03T00:19:43;3;2;
63915;PMS5003;50094;51.356;-0.196;2022-10-03T00:22:20;2;2;
63915;PMS5003;50094;51.356;-0.196;2022-10-03T00:25:03;4;3;
63915;PMS5003;50094;51.356;-0.196;2022-10-03T00:27:47;3;3;
63915;PMS5003;50094;51.356;-0.196;2022-10-03T00:30:21;3;3;
63915;PMS5003;50094;51.356;-0.196;2022-10-03T00:32:55;2;0;
63915;PMS5003;50094;51.356;-0.196;2022-10-03T00:35:35;4;1;
63915;PMS5003;50094;51.356;-0.196;2022-10-03T00:38:17;2;2;
63915;PMS5003;50094;51.356;-0.196;2022-10-03T00:41:03;3;3;
63915;PMS5003;50094;51.356;-0.196;2022-10-03T00:44:04;2;1;
63915;PMS5003;50094;51.356;-0.196;2022-10-03T00:46:58;3;3;
63915;PMS5003;50094;51.356;-0.196;2022-10-03T00:50:18;3;3;
63915;PMS5003;50094;51.356;-0.196;2022-10-03T00:53:02;1;1;
63915;PMS5003;50094;51.356;-0.196;2022-10-03T00:55:48;2;2;
63915;PMS5003;50094;51.356;-0.196;2022-10-03T00:58:31;3;2;
63915;PMS5003;50094;51.356;-0.196;2022-10-03T01:01:20;1;1;
63915;PMS5003;50094;51.356;-0.196;2022-10-03T01:03:59;2;2;
63915;PMS5003;50094;51.356;-0.196;2022-10-03T01:06:39;2;2;
63915;PMS5003;50094;51.356;-0.196;2022-10-03T01:09:16;5;3;
63915;PMS5003;50094;51.356;-0.196;2022-10-03T01:11:57;4;2;
63915;PMS5003;50094;51.356;-0.196;2022-10-03T01:14:44;1;1;
63915;PMS5003;50094;51.356;-0.196;2022-10-03T01:17:25;4;2;
63915;PMS5003;50094;51.356;-0.196;2022-10-03T01:20:10;2;2;
63915;PMS5003;50094;51.356;-0.196;2022-10-03T01:22:52;2;2;
63915;PMS5003;50094;51.356;-0.196;2022-10-03T01:25:36;2;2;
63915;PMS5003;50094;51.356;-0.196;2022-10-03T01:28:18;3;3;
63915;PMS5003;50094;51.356;-0.196;2022-10-03T01:30:56;1;1;
63915;PMS5003;50094;51.356;-0.196;2022-10-03T01:33:28;2;2;
63915;PMS5003;50094;51.356;-0.196;2022-10-03T01:36:00;2;2;
63915;PMS5003;50094;51.356;-0.196;2022-10-03T01:38:37;6;6;
63915;PMS5003;50094;51.356;-0.196;2022-10-03T01:41:12;1;1;
63915;PMS5003;50094;51.356;-0.196;2022-10-03T01:43:49;2;2;
63915;PMS5003;50094;51.356;-0.196;2022-10-03T01:46:21;4;3;
63915;PMS5003;50094;51.356;-0.196;2022-10-03T01:48:52;2;1;
63915;PMS5003;50094;51.356;-0.196;2022-10-03T01:51:28;3;3;
63915;PMS5003;50094;51.356;-0.196;2022-10-03T01:54:05;3;1;
63915;PMS5003;50094;51.356;-0.196;2022-10-03T01:56:47;1;1;
63915;PMS5003;50094;51.356;-0.196;2022-10-03T01:59:22;3;2;
63915;PMS5003;50094;51.356;-0.196;2022-10-03T02:02:00;3;3;
63915;PMS5003;50094;51.356;-0.196;2022-10-03T02:04:35;4;2;
63915;PMS5003;50094;51.356;-0.196;2022-10-03T02:07:14;0;0;
63915;PMS5003;50094;51.356;-0.196;2022-10-03T02:09:51;2;2;
63915;PMS5003;50094;51.356;-0.196;2022-10-03T02:12:26;2;1;
63915;PMS5003;50094;51.356;-0.196;2022-10-03T02:14:59;3;3;
63915;PMS5003;50094;51.356;-0.196;2022-10-03T02:17:40;2;1;
63915;PMS5003;50094;51.356;-0.196;2022-10-03T02:20:17;0;0;
63915;PMS5003;50094;51.356;-0.196;2022-10-03T02:22:51;2;0;
63915;PMS5003;50094;51.356;-0.196;2022-10-03T02:25:23;1;1;
63915;PMS5003;50094;51.356;-0.196;2022-10-03T02:28:04;1;1;
63915;PMS5003;50094;51.356;-0.196;2022-10-03T02:31:16;1;1;
63915;PMS5003;50094;51.356;-0.196;2022-10-03T02:34:15;4;2;
63915;PMS5003;50094;51.356;-0.196;2022-10-03T02:37:06;1;1;
63915;PMS5003;50094;51.356;-0.196;2022-10-03T02:39:59;3;2;
63915;PMS5003;50094;51.356;-0.196;2022-10-03T02:43:07;2;2;
63915;PMS5003;50094;51.356;-0.196;2022-10-03T02:45:58;3;2;
63915;PMS5003;50094;51.356;-0.196;2022-10-03T02:48:37;3;2;
63915;PMS5003;50094;51.356;-0.196;2022-10-03T02:51:29;2;1;
63915;PMS5003;50094;51.356;-0.196;2022-10-03T02:54:18;1;1;
63915;PMS5003;50094;51.356;-0.196;2022-10-03T02:57:16;1;1;
63915;PMS5003;50094;51.356;-0.196;2022-10-03T03:00:09;3;2;
63915;PMS5003;50094;51.356;-0.196;2022-10-03T03:02:55;1;1;
63915;PMS5003;50094;51.356;-0.196;2022-10-03T03:06:10;2;2;
63915;PMS5003;50094;51.356;-0.196;2022-10-03T03:09:01;1;0;
63915;PMS5003;50094;51.356;-0.196;2022-10-03T03:11:46;2;2;
63915;PMS5003;50094;51.356;-0.196;2022-10-03T03:14:40;1;1;
63915;PMS5003;50094;51.356;-0.196;2022-10-03T03:17:34;1;1;
63915;PMS5003;50094;51.356;-0.196;2022-10-03T03:20:16;1;1;
63915;PMS5003;50094;51.356;-0.196;2022-10-03T03:22:58;0;0;
63915;PMS5003;50094;51.356;-0.196;2022-10-03T03:25:50;2;2;
63915;PMS5003;50094;51.356;-0.196;2022-10-03T03:28:32;2;2;
63915;PMS5003;50094;51.356;-0.196;2022-10-03T03:31:10;2;2;
63915;PMS5003;50094;51.356;-0.196;2022-10-03T03:33:46;1;0;
63915;PMS5003;50094;51.356;-0.196;2022-10-03T03:36:26;2;2;
63915;PMS5003;50094;51.356;-0.196;2022-10-03T03:39:06;0;0;
63915;PMS5003;50094;51.356;-0.196;2022-10-03T03:41:45;1;1;
63915;PMS5003;50094;51.356;-0.196;2022-10-03T03:45:03;2;2;
63915;PMS5003;50094;51.356;-0.196;2022-10-03T03:47:47;3;1;
63915;PMS5003;50094;51.356;-0.196;2022-10-03T03:50:29;1;1;
63915;PMS5003;50094;51.356;-0.196;2022-10-03T03:53:15;2;2;
63915;PMS5003;50094;51.356;-0.196;2022-10-03T03:56:00;1;1;
63915;PMS5003;50094;51.356;-0.196;2022-10-03T03:58:41;2;1;
63915;PMS5003;50094;51.356;-0.196;2022-10-03T04:01:22;2;2;
63915;PMS5003;50094;51.356;-0.196;2022-10-03T04:04:06;2;2;
63915;PMS5003;50094;51.356;-0.196;2022-10-03T04:06:45;1;1;
63915;PMS5003;50094;51.356;-0.196;2022-10-03T04:09:26;1;1;
63915;PMS5003;50094;51.356;-0.196;2022-10-03T04:12:08;3;2;
63915;PMS5003;50094;51.356;-0.196;2022-10-03T04:14:51;0;0;
63915;PMS5003;50094;51.356;-0.196;2022-10-03T04:17:42;1;1;
63915;PMS5003;50094;51.356;-0.196;2022-10-03T04:20:21;4;2;
63915;PMS5003;50094;51.356;-0.196;2022-10-03T04:23:05;2;2;
63915;PMS5003;50094;51.356;-0.196;2022-10-03T04:25:48;2;2;
63915;PMS5003;50094;51.356;-0.196;2022-10-03T04:28:30;3;2;
63915;PMS5003;50094;51.356;-0.196;2022-10-03T04:31:15;2;2;
63915;PMS5003;50094;51.356;-0.196;2022-10-03T04:33:57;1;1;
63915;PMS5003;50094;51.356;-0.196;2022-10-03T04:36:47;2;2;
63915;PMS5003;50094;51.356;-0.196;2022-10-03T04:39:28;1;1;
63915;PMS5003;50094;51.356;-0.196;2022-10-03T04:42:02;2;2;
63915;PMS5003;50094;51.356;-0.196;2022-10-03T04:44:43;0;0;
63915;PMS5003;50094;51.356;-0.196;2022-10-03T04:47:27;3;1;
63915;PMS5003;50094;51.356;-0.196;2022-10-03T04:49:59;5;2;
63915;PMS5003;50094;51.356;-0.196;2022-10-03T04:52:40;2;2;
63915;PMS5003;50094;51.356;-0.196;2022-10-03T04:55:16;3;2;
63915;PMS5003;50094;51.356;-0.196;2022-10-03T04:57:51;1;1;
63915;PMS5003;50094;51.356;-0.196;2022-10-03T05:00:28;2;1;
63915;PMS5003;50094;51.356;-0.196;2022-10-03T05:03:02;1;1;
63915;PMS5003;50094;51.356;-0.196;2022-10-03T05:05:44;1;1;
63915;PMS5003;50094;51.356;-0.196;2022-10-03T05:08:22;2;2;
63915;PMS5003;50094;51.356;-0.196;2022-10-03T05:11:08;4;3;
63915;PMS5003;50094;51.356;-0.196;2022-10-03T05:13:50;2;0;
63915;PMS5003;50094;51.356;-0.196;2022-10-03T05:16:30;3;1;
63915;PMS5003;50094;51.356;-0.196;2022-10-03T05:19:08;2;1;
63915;PMS5003;50094;51.356;-0.196;2022-10-03T05:21:53;1;1;
63915;PMS5003;50094;51.356;-0.196;2022-10-03T05:24:28;2;2;
63915;PMS5003;50094;51.356;-0.196;2022-10-03T05:27:05;5;3;
63915;PMS5003;50094;51.356;-0.196;2022-10-03T05:29:40;3;3;
63915;PMS5003;50094;51.356;-0.196;2022-10-03T05:32:15;15;12;
63915;PMS5003;50094;51.356;-0.196;2022-10-03T05:34:59;7;4;
63915;PMS5003;50094;51.356;-0.196;2022-10-03T05:37:48;2;2;
63915;PMS5003;50094;51.356;-0.196;2022-10-03T05:40:33;4;3;
63915;PMS5003;50094;51.356;-0.196;2022-10-03T05:43:05;4;4;
63915;PMS5003;50094;51.356;-0.196;2022-10-03T05:45:47;5;3;
63915;PMS5003;50094;51.356;-0.196;2022-10-03T05:48:25;3;3;
63915;PMS5003;50094;51.356;-0.196;2022-10-03T05:51:05;3;3;
63915;PMS5003;50094;51.356;-0.196;2022-10-03T05:54:23;3;3;
63915;PMS5003;50094;51.356;-0.196;2022-10-03T05:56:43;3;3;
63915;PMS5003;50094;51.356;-0.196;2022-10-03T05:59:32;8;4;
63915;PMS5003;50094;51.356;-0.196;2022-10-03T06:02:23;3;3;
63915;PMS5003;50094;51.356;-0.196;2022-10-03T06:05:15;4;4;
63915;PMS5003;50094;51.356;-0.196;2022-10-03T06:08:00;3;2;
63915;PMS5003;50094;51.356;-0.196;2022-10-03T06:10:47;5;4;
63915;PMS5003;50094;51.356;-0.196;2022-10-03T06:13:25;4;4;
63915;PMS5003;50094;51.356;-0.196;2022-10-03T06:16:12;4;3;
63915;PMS5003;50094;51.356;-0.196;2022-10-03T06:19:04;3;3;
63915;PMS5003;50094;51.356;-0.196;2022-10-03T06:21:45;7;5;
63915;PMS5003;50094;51.356;-0.196;2022-10-03T06:25:13;5;5;
63915;PMS5003;50094;51.356;-0.196;2022-10-03T06:28:08;8;5;
63915;PMS5003;50094;51.356;-0.196;2022-10-03T06:31:02;5;5;
63915;PMS5003;50094;51.356;-0.196;2022-10-03T06:33:52;6;5;
63915;PMS5003;50094;51.356;-0.196;2022-10-03T06:36:43;5;5;
63915;PMS5003;50094;51.356;-0.196;2022-10-03T06:39:34;7;5;
63915;PMS5003;50094;51.356;-0.196;2022-10-03T06:42:44;3;3;
63915;PMS5003;50094;51.356;-0.196;2022-10-03T06:45:31;4;4;
63915;PMS5003;50094;51.356;-0.196;2022-10-03T06:48:21;5;5;
63915;PMS5003;50094;51.356;-0.196;2022-10-03T06:51:07;5;4;
63915;PMS5003;50094;51.356;-0.196;2022-10-03T06:53:58;4;4;
63915;PMS5003;50094;51.356;-0.196;2022-10-03T06:56:44;3;3;
63915;PMS5003;50094;51.356;-0.196;2022-10-03T06:59:37;5;5;
63915;PMS5003;50094;51.356;-0.196;2022-10-03T07:02:26;3;3;
63915;PMS5003;50094;51.356;-0.196;2022-10-03T07:05:15;6;3;
63915;PMS5003;50094;51.356;-0.196;2022-10-03T07:08:22;7;5;
63915;PMS5003;50094;51.356;-0.196;2022-10-03T07:11:06;3;3;
63915;PMS5003;50094;51.356;-0.196;2022-10-03T07:13:57;4;3;
63915;PMS5003;50094;51.356;-0.196;2022-10-03T07:16:53;6;3;
63915;PMS5003;50094;51.356;-0.196;2022-10-03T07:19:45;3;2;
63915;PMS5003;50094;51.356;-0.196;2022-10-03T07:22:29;4;3;
63915;PMS5003;50094;51.356;-0.196;2022-10-03T07:27:27;4;3;
63915;PMS5003;50094;51.356;-0.196;2022-10-03T07:30:12;4;3;
63915;PMS5003;50094;51.356;-0.196;2022-10-03T07:32:47;2;2;
63915;PMS5003;50094;51.356;-0.196;2022-10-03T07:36:10;2;2;
63915;PMS5003;50094;51.356;-0.196;2022-10-03T07:39:10;2;2;
63915;PMS5003;50094;51.356;-0.196;2022-10-03T07:42:27;4;2;
63915;PMS5003;50094;51.356;-0.196;2022-10-03T07:45:19;2;2;
63915;PMS5003;50094;51.356;-0.196;2022-10-03T07:48:14;1;1;
63915;PMS5003;50094;51.356;-0.196;2022-10-03T07:48:53;1;1;
63915;PMS5003;50094;51.356;-0.196;2022-10-03T07:51:37;3;2;
63915;PMS5003;50094;51.356;-0.196;2022-10-03T07:54:19;1;1;
63915;PMS5003;50094;51.356;-0.196;2022-10-03T07:57:35;0;0;
63915;PMS5003;50094;51.356;-0.196;2022-10-03T08:00:21;2;2;
63915;PMS5003;50094;51.356;-0.196;2022-10-03T08:03:00;1;1;
63915;PMS5003;50094;51.356;-0.196;2022-10-03T08:05:27;1;1;
63915;PMS5003;50094;51.356;-0.196;2022-10-03T08:08:12;3;3;
63915;PMS5003;50094;51.356;-0.196;2022-10-03T08:11:05;1;1;
63915;PMS5003;50094;51.356;-0.196;2022-10-03T08:13:52;3;1;
63915;PMS5003;50094;51.356;-0.196;2022-10-03T08:16:44;1;1;
63915;PMS5003;50094;51.356;-0.196;2022-10-03T08:19:35;2;2;
63915;PMS5003;50094;51.356;-0.196;2022-10-03T08:22:19;1;1;
63915;PMS5003;50094;51.356;-0.196;2022-10-03T08:25:09;0;0;
63915;PMS5003;50094;51.356;-0.196;2022-10-03T08:27:52;2;1;
63915;PMS5003;50094;51.356;-0.196;2022-10-03T08:30:42;0;0;
63915;PMS5003;50094;51.356;-0.196;2022-10-03T08:33:30;2;2;
63915;PMS5003;50094;51.356;-0.196;2022-10-03T08:36:17;4;2;
63915;PMS5003;50094;51.356;-0.196;2022-10-03T08:39:11;2;1;
63915;PMS5003;50094;51.356;-0.196;2022-10-03T08:42:00;1;1;
63915;PMS5003;50094;51.356;-0.196;2022-10-03T08:45:07;1;1;
63915;PMS5003;50094;51.356;-0.196;2022-10-03T08:48:07;1;1;
63915;PMS5003;50094;51.356;-0.196;2022-10-03T08:51:04;1;1;
63915;PMS5003;50094;51.356;-0.196;2022-10-03T08:53:53;1;1;
63915;PMS5003;50094;51.356;-0.196;2022-10-03T08:56:36;1;1;
63915;PMS5003;50094;51.356;-0.196;2022-10-03T08:59:29;2;1;
63915;PMS5003;50094;51.356;-0.196;2022-10-03T09:04:09;3;2;
63915;PMS5003;50094;51.356;-0.196;2022-10-03T09:07:04;2;0;
63915;PMS5003;50094;51.356;-0.196;2022-10-03T09:10:21;1;1;
63915;PMS5003;50094;51.356;-0.196;2022-10-03T09:14:19;1;1;
63915;PMS5003;50094;51.356;-0.196;2022-10-03T09:17:11;1;1;
63915;PMS5003;50094;51.356;-0.196;2022-10-03T09:21:08;1;1;
63915;PMS5003;50094;51.356;-0.196;2022-10-03T09:24:33;0;0;
63915;PMS5003;50094;51.356;-0.196;2022-10-03T09:28:01;1;1;
63915;PMS5003;50094;51.356;-0.196;2022-10-03T09:31:10;0;0;
63915;PMS5003;50094;51.356;-0.196;2022-10-03T09:33:55;0;0;
63915;PMS5003;50094;51.356;-0.196;2022-10-03T09:36:58;3;1;
63915;PMS5003;50094;51.356;-0.196;2022-10-03T09:39:59;1;1;
63915;PMS5003;50094;51.356;-0.196;2022-10-03T09:42:49;1;1;
63915;PMS5003;50094;51.356;-0.196;2022-10-03T09:45:34;2;0;
63915;PMS5003;50094;51.356;-0.196;2022-10-03T09:48:20;1;1;
63915;PMS5003;50094;51.356;-0.196;2022-10-03T09:50:59;2;0;
63915;PMS5003;50094;51.356;-0.196;2022-10-03T09:53:41;2;2;
63915;PMS5003;50094;51.356;-0.196;2022-10-03T09:56:12;2;2;
63915;PMS5003;50094;51.356;-0.196;2022-10-03T09:59:04;0;0;
63915;PMS5003;50094;51.356;-0.196;2022-10-03T10:01:46;0;0;
63915;PMS5003;50094;51.356;-0.196;2022-10-03T10:04:55;0;0;
63915;PMS5003;50094;51.356;-0.196;2022-10-03T10:09:52;1;1;
63915;PMS5003;50094;51.356;-0.196;2022-10-03T10:12:45;1;1;
63915;PMS5003;50094;51.356;-0.196;2022-10-03T10:15:39;1;1;
63915;PMS5003;50094;51.356;-0.196;2022-10-03T10:18:32;3;1;
63915;PMS5003;50094;51.356;-0.196;2022-10-03T10:22:21;1;1;
63915;PMS5003;50094;51.356;-0.196;2022-10-03T10:26:13;0;0;
63915;PMS5003;50094;51.356;-0.196;2022-10-03T10:29:12;1;1;
63915;PMS5003;50094;51.356;-0.196;2022-10-03T10:34:13;1;1;
63915;PMS5003;50094;51.356;-0.196;2022-10-03T10:37:12;0;0;
63915;PMS5003;50094;51.356;-0.196;2022-10-03T10:41:33;1;1;
63915;PMS5003;50094;51.356;-0.196;2022-10-03T10:44:20;0;0;
63915;PMS5003;50094;51.356;-0.196;2022-10-03T10:47:53;1;1;
63915;PMS5003;50094;51.356;-0.196;2022-10-03T10:50:51;1;1;
63915;PMS5003;50094;51.356;-0.196;2022-10-03T10:52:49;1;1;
63915;PMS5003;50094;51.356;-0.196;2022-10-03T10:56:26;1;1;
63915;PMS5003;50094;51.356;-0.196;2022-10-03T11:00:06;0;0;
63915;PMS5003;50094;51.356;-0.196;2022-10-03T11:06:09;1;1;
63915;PMS5003;50094;51.356;-0.196;2022-10-03T11:09:48;1;1;
63915;PMS5003;50094;51.356;-0.196;2022-10-03T11:12:49;0;0;
63915;PMS5003;50094;51.356;-0.196;2022-10-03T11:16:39;1;1;
63915;PMS5003;50094;51.356;-0.196;2022-10-03T11:19:42;3;2;
63915;PMS5003;50094;51.356;-0.196;2022-10-03T11:23:12;1;1;
63915;PMS5003;50094;51.356;-0.196;2022-10-03T11:26:35;0;0;
63915;PMS5003;50094;51.356;-0.196;2022-10-03T11:30:02;0;0;
63915;PMS5003;50094;51.356;-0.196;2022-10-03T11:33:06;0;0;
63915;PMS5003;50094;51.356;-0.196;2022-10-03T11:35:31;0;0;
63915;PMS5003;50094;51.356;-0.196;2022-10-03T11:38:15;0;0;
63915;PMS5003;50094;51.356;-0.196;2022-10-03T11:40:52;0;0;
63915;PMS5003;50094;51.356;-0.196;2022-10-03T11:43:34;0;0;
63915;PMS5003;50094;51.356;-0.196;2022-10-03T11:46:20;0;0;
63915;PMS5003;50094;51.356;-0.196;2022-10-03T11:48:55;0;0;
63915;PMS5003;50094;51.356;-0.196;2022-10-03T11:51:34;1;1;
63915;PMS5003;50094;51.356;-0.196;2022-10-03T11:54:07;1;0;
63915;PMS5003;50094;51.356;-0.196;2022-10-03T11:56:44;2;0;
63915;PMS5003;50094;51.356;-0.196;2022-10-03T11:59:24;0;0;
63915;PMS5003;50094;51.356;-0.196;2022-10-03T12:02:06;2;2;
63915;PMS5003;50094;51.356;-0.196;2022-10-03T12:04:44;1;1;
63915;PMS5003;50094;51.356;-0.196;2022-10-03T12:07:19;0;0;
63915;PMS5003;50094;51.356;-0.196;2022-10-03T12:10:16;1;0;
63915;PMS5003;50094;51.356;-0.196;2022-10-03T12:12:58;0;0;
63915;PMS5003;50094;51.356;-0.196;2022-10-03T12:15:32;0;0;
63915;PMS5003;50094;51.356;-0.196;2022-10-03T12:18:05;0;0;
63915;PMS5003;50094;51.356;-0.196;2022-10-03T12:20:43;1;1;
63915;PMS5003;50094;51.356;-0.196;2022-10-03T12:23:55;1;1;
63915;PMS5003;50094;51.356;-0.196;2022-10-03T12:26:35;0;0;
63915;PMS5003;50094;51.356;-0.196;2022-10-03T12:29:10;2;0;
63915;PMS5003;50094;51.356;-0.196;2022-10-03T12:31:39;0;0;
63915;PMS5003;50094;51.356;-0.196;2022-10-03T12:34:19;1;1;
63915;PMS5003;50094;51.356;-0.196;2022-10-03T12:37:02;1;0;
63915;PMS5003;50094;51.356;-0.196;2022-10-03T12:39:44;1;0;
63915;PMS5003;50094;51.356;-0.196;2022-10-03T12:42:28;2;2;
63915;PMS5003;50094;51.356;-0.196;2022-10-03T12:44:59;0;0;
63915;PMS5003;50094;51.356;-0.196;2022-10-03T12:47:39;2;0;
63915;PMS5003;50094;51.356;-0.196;2022-10-03T12:53:19;1;1;
63915;PMS5003;50094;51.356;-0.196;2022-10-03T12:55:57;0;0;
63915;PMS5003;50094;51.356;-0.196;2022-10-03T12:58:35;3;1;
63915;PMS5003;50094;51.356;-0.196;2022-10-03T13:01:17;1;1;
63915;PMS5003;50094;51.356;-0.196;2022-10-03T13:03:51;1;1;
63915;PMS5003;50094;51.356;-0.196;2022-10-03T13:06:38;0;0;
63915;PMS5003;50094;51.356;-0.196;2022-10-03T13:09:14;1;0;
63915;PMS5003;50094;51.356;-0.196;2022-10-03T13:11:54;3;0;
63915;PMS5003;50094;51.356;-0.196;2022-10-03T13:18:11;0;0;
63915;PMS5003;50094;51.356;-0.196;2022-10-03T13:20:52;3;0;
63915;PMS5003;50094;51.356;-0.196;2022-10-03T13:23:28;2;1;
63915;PMS5003;50094;51.356;-0.196;2022-10-03T13:26:06;0;0;
63915;PMS5003;50094;51.356;-0.196;2022-10-03T13:28:44;1;1;
63915;PMS5003;50094;51.356;-0.196;2022-10-03T13:31:24;0;0;
63915;PMS5003;50094;51.356;-0.196;2022-10-03T13:33:56;0;0;
63915;PMS5003;50094;51.356;-0.196;2022-10-03T13:36:29;1;0;
63915;PMS5003;50094;51.356;-0.196;2022-10-03T13:39:06;1;1;
63915;PMS5003;50094;51.356;-0.196;2022-10-03T13:41:54;0;0;
63915;PMS5003;50094;51.356;-0.196;2022-10-03T13:44:33;0;0;
63915;PMS5003;50094;51.356;-0.196;2022-10-03T13:47:07;0;0;
63915;PMS5003;50094;51.356;-0.196;2022-10-03T13:49:49;0;0;
63915;PMS5003;50094;51.356;-0.196;2022-10-03T13:52:20;0;0;
63915;PMS5003;50094;51.356;-0.196;2022-10-03T13:55:01;1;1;
63915;PMS5003;50094;51.356;-0.196;2022-10-03T13:57:45;2;0;
63915;PMS5003;50094;51.356;-0.196;2022-10-03T14:00:23;1;1;
63915;PMS5003;50094;51.356;-0.196;2022-10-03T14:02:59;1;1;
63915;PMS5003;50094;51.356;-0.196;2022-10-03T14:05:56;0;0;
63915;PMS5003;50094;51.356;-0.196;2022-10-03T14:08:38;0;0;
63915;PMS5003;50094;51.356;-0.196;2022-10-03T14:11:21;2;2;
63915;PMS5003;50094;51.356;-0.196;2022-10-03T14:14:30;1;1;
63915;PMS5003;50094;51.356;-0.196;2022-10-03T14:17:09;0;0;
63915;PMS5003;50094;51.356;-0.196;2022-10-03T14:19:44;0;0;
63915;PMS5003;50094;51.356;-0.196;2022-10-03T14:22:23;2;1;
63915;PMS5003;50094;51.356;-0.196;2022-10-03T14:25:04;0;0;
63915;PMS5003;50094;51.356;-0.196;2022-10-03T14:27:45;1;1;
63915;PMS5003;50094;51.356;-0.196;2022-10-03T14:30:19;1;1;
63915;PMS5003;50094;51.356;-0.196;2022-10-03T14:32:51;2;1;
63915;PMS5003;50094;51.356;-0.196;2022-10-03T14:35:32;1;1;
63915;PMS5003;50094;51.356;-0.196;2022-10-03T14:38:11;1;1;
63915;PMS5003;50094;51.356;-0.196;2022-10-03T14:40:47;0;0;
63915;PMS5003;50094;51.356;-0.196;2022-10-03T14:43:22;0;0;
63915;PMS5003;50094;51.356;-0.196;2022-10-03T14:45:59;0;0;
63915;PMS5003;50094;51.356;-0.196;2022-10-03T14:48:28;1;1;
63915;PMS5003;50094;51.356;-0.196;2022-10-03T14:51:04;1;1;
63915;PMS5003;50094;51.356;-0.196;2022-10-03T14:53:39;0;0;
63915;PMS5003;50094;51.356;-0.196;2022-10-03T14:56:13;0;0;
63915;PMS5003;50094;51.356;-0.196;2022-10-03T14:58:45;1;1;
63915;PMS5003;50094;51.356;-0.196;2022-10-03T15:01:17;0;0;
63915;PMS5003;50094;51.356;-0.196;2022-10-03T15:03:51;3;1;
63915;PMS5003;50094;51.356;-0.196;2022-10-03T15:06:48;0;0;
63915;PMS5003;50094;51.356;-0.196;2022-10-03T15:09:18;2;0;
63915;PMS5003;50094;51.356;-0.196;2022-10-03T15:11:48;0;0;
63915;PMS5003;50094;51.356;-0.196;2022-10-03T15:14:21;0;0;
63915;PMS5003;50094;51.356;-0.196;2022-10-03T15:16:54;0;0;
63915;PMS5003;50094;51.356;-0.196;2022-10-03T15:19:25;2;0;
63915;PMS5003;50094;51.356;-0.196;2022-10-03T15:22:01;1;1;
63915;PMS5003;50094;51.356;-0.196;2022-10-03T15:24:33;3;2;
63915;PMS5003;50094;51.356;-0.196;2022-10-03T15:27:02;1;1;
63915;PMS5003;50094;51.356;-0.196;2022-10-03T15:29:34;0;0;
63915;PMS5003;50094;51.356;-0.196;2022-10-03T15:32:04;1;0;
63915;PMS5003;50094;51.356;-0.196;2022-10-03T15:34:43;0;0;
63915;PMS5003;50094;51.356;-0.196;2022-10-03T15:37:14;1;0;
63915;PMS5003;50094;51.356;-0.196;2022-10-03T15:39:44;1;0;
63915;PMS5003;50094;51.356;-0.196;2022-10-03T15:42:18;1;1;
63915;PMS5003;50094;51.356;-0.196;2022-10-03T15:44:48;0;0;
63915;PMS5003;50094;51.356;-0.196;2022-10-03T15:47:18;2;1;
63915;PMS5003;50094;51.356;-0.196;2022-10-03T15:49:50;0;0;
63915;PMS5003;50094;51.356;-0.196;2022-10-03T15:52:20;0;0;
63915;PMS5003;50094;51.356;-0.196;2022-10-03T15:54:52;1;1;
63915;PMS5003;50094;51.356;-0.196;2022-10-03T15:57:24;0;0;
63915;PMS5003;50094;51.356;-0.196;2022-10-03T15:59:56;0;0;
63915;PMS5003;50094;51.356;-0.196;2022-10-03T16:02:26;2;0;
63915;PMS5003;50094;51.356;-0.196;2022-10-03T16:05:01;0;0;
63915;PMS5003;50094;51.356;-0.196;2022-10-03T16:07:34;0;0;
63915;PMS5003;50094;51.356;-0.196;2022-10-03T16:10:10;1;1;
63915;PMS5003;50094;51.356;-0.196;2022-10-03T16:12:46;1;1;
63915;PMS5003;50094;51.356;-0.196;2022-10-03T16:15:21;0;0;
63915;PMS5003;50094;51.356;-0.196;2022-10-03T16:17:54;1;0;
63915;PMS5003;50094;51.356;-0.196;2022-10-03T16:20:26;1;1;
63915;PMS5003;50094;51.356;-0.196;2022-10-03T16:22:58;1;1;
63915;PMS5003;50094;51.356;-0.196;2022-10-03T16:25:38;1;1;
63915;PMS5003;50094;51.356;-0.196;2022-10-03T16:28:13;0;0;
63915;PMS5003;50094;51.356;-0.196;2022-10-03T16:30:45;0;0;
63915;PMS5003;50094;51.356;-0.196;2022-10-03T16:33:19;0;0;
63915;PMS5003;50094;51.356;-0.196;2022-10-03T16:35:52;1;1;
63915;PMS5003;50094;51.356;-0.196;2022-10-03T16:38:22;2;0;
63915;PMS5003;50094;51.356;-0.196;2022-10-03T16:40:54;1;0;
63915;PMS5003;50094;51.356;-0.196;2022-10-03T16:43:23;0;0;
63915;PMS5003;50094;51.356;-0.196;2022-10-03T16:45:51;1;1;
63915;PMS5003;50094;51.356;-0.196;2022-10-03T16:48:22;1;1;
63915;PMS5003;50094;51.356;-0.196;2022-10-03T16:50:54;1;1;
63915;PMS5003;50094;51.356;-0.196;2022-10-03T16:53:23;0;0;
63915;PMS5003;50094;51.356;-0.196;2022-10-03T16:55:51;2;1;
63915;PMS5003;50094;51.356;-0.196;2022-10-03T16:58:22;1;0;
63915;PMS5003;50094;51.356;-0.196;2022-10-03T17:00:55;0;0;
63915;PMS5003;50094;51.356;-0.196;2022-10-03T17:03:27;0;0;
63915;PMS5003;50094;51.356;-0.196;2022-10-03T17:06:03;1;1;
63915;PMS5003;50094;51.356;-0.196;2022-10-03T17:08:34;1;0;
63915;PMS5003;50094;51.356;-0.196;2022-10-03T17:11:11;1;1;
63915;PMS5003;50094;51.356;-0.196;2022-10-03T17:13:44;1;1;
63915;PMS5003;50094;51.356;-0.196;2022-10-03T17:16:14;2;1;
63915;PMS5003;50094;51.356;-0.196;2022-10-03T17:18:54;0;0;
63915;PMS5003;50094;51.356;-0.196;2022-10-03T17:21:30;1;1;
63915;PMS5003;50094;51.356;-0.196;2022-10-03T17:24:00;1;1;
63915;PMS5003;50094;51.356;-0.196;2022-10-03T17:26:33;1;1;
63915;PMS5003;50094;51.356;-0.196;2022-10-03T17:29:07;1;1;
63915;PMS5003;50094;51.356;-0.196;2022-10-03T17:31:42;1;1;
63915;PMS5003;50094;51.356;-0.196;2022-10-03T17:34:14;2;2;
63915;PMS5003;50094;51.356;-0.196;2022-10-03T17:36:48;1;1;
63915;PMS5003;50094;51.356;-0.196;2022-10-03T17:39:34;0;0;
63915;PMS5003;50094;51.356;-0.196;2022-10-03T17:42:13;1;1;
63915;PMS5003;50094;51.356;-0.196;2022-10-03T17:44:55;1;1;
63915;PMS5003;50094;51.356;-0.196;2022-10-03T17:47:28;0;0;
63915;PMS5003;50094;51.356;-0.196;2022-10-03T17:50:03;1;1;
63915;PMS5003;50094;51.356;-0.196;2022-10-03T17:52:38;0;0;
63915;PMS5003;50094;51.356;-0.196;2022-10-03T17:55:09;1;0;
63915;PMS5003;50094;51.356;-0.196;2022-10-03T17:57:43;3;1;
63915;PMS5003;50094;51.356;-0.196;2022-10-03T18:00:16;1;1;
63915;PMS5003;50094;51.356;-0.196;2022-10-03T18:02:49;1;0;
63915;PMS5003;50094;51.356;-0.196;2022-10-03T18:05:24;3;1;
63915;PMS5003;50094;51.356;-0.196;2022-10-03T18:07:54;0;0;
63915;PMS5003;50094;51.356;-0.196;2022-10-03T18:10:28;1;1;
63915;PMS5003;50094;51.356;-0.196;2022-10-03T18:13:00;0;0;
63915;PMS5003;50094;51.356;-0.196;2022-10-03T18:15:36;0;0;
63915;PMS5003;50094;51.356;-0.196;2022-10-03T18:18:21;0;0;
63915;PMS5003;50094;51.356;-0.196;2022-10-03T18:21:14;3;2;
63915;PMS5003;50094;51.356;-0.196;2022-10-03T18:23:56;0;0;
63915;PMS5003;50094;51.356;-0.196;2022-10-03T18:26:39;4;2;
63915;PMS5003;50094;51.356;-0.196;2022-10-03T18:29:13;1;1;
63915;PMS5003;50094;51.356;-0.196;2022-10-03T18:31:48;1;0;
63915;PMS5003;50094;51.356;-0.196;2022-10-03T18:34:20;0;0;
63915;PMS5003;50094;51.356;-0.196;2022-10-03T18:36:53;4;2;
63915;PMS5003;50094;51.356;-0.196;2022-10-03T18:39:23;2;1;
63915;PMS5003;50094;51.356;-0.196;2022-10-03T18:41:53;1;0;
63915;PMS5003;50094;51.356;-0.196;2022-10-03T18:44:24;2;2;